Aviation Digital Data Service (ADDS)

Output produced by METARs form (0008 UTC 24 October 2019)
found at http://www.aviationweather.gov/metar/data/
 
Forecast for: KSJC (SAN JOSE , CA, US)
Text: KSJC 232320Z 2400/2424 31012KT P6SM SKC
Forecast period: 0000 to 0400 UTC 24 October 2019
Forecast type: FROM: standard forecast or significant change
Winds: from the NW (310 degrees) at 14 MPH (12 knots; 6.2 m/s)
Visibility: 6 or more miles 10+ km)
Clouds: clear skies
Weather: no significant weather forecast for this period
Text: FM240400 VRB05KT P6SM SKC
Forecast period: 0400 to 1800 UTC 24 October 2019
Forecast type: FROM: standard forecast or significant change
Winds: variable direction winds at 6 MPH (5 knots; 2.6 m/s)
Visibility: 6 or more miles 10+ km)
Clouds: clear skies
Weather: no significant weather forecast for this period
Text: FM241800 32008KT P6SM SKC
Forecast period: 1800 UTC 24 October 2019 to 0000 UTC 25 October 2019
Forecast type: FROM: standard forecast or significant change
Winds: from the NW (320 degrees) at 9 MPH (8 knots; 4.1 m/s)
Visibility: 6 or more miles 10+ km)
Clouds: clear skies
Weather: no significant weather forecast for this period